createdAt,value
2017-10-20T00:00:40.063Z,12.45
2017-10-20T00:01:40.070Z,12.57
2017-10-20T00:02:40.071Z,12.57
2017-10-20T00:03:40.079Z,12.45
2017-10-20T00:04:40.074Z,12.45
2017-10-20T00:05:40.079Z,12.43
2017-10-20T00:06:40.083Z,12.47
2017-10-20T00:07:40.092Z,12.45
2017-10-20T00:08:40.096Z,12.43
2017-10-20T00:09:40.094Z,12.46
2017-10-20T00:10:40.093Z,12.50
2017-10-20T00:11:40.106Z,12.45
2017-10-20T00:12:40.110Z,12.45
2017-10-20T00:13:40.105Z,12.43
2017-10-20T00:14:40.113Z,12.46
2017-10-20T00:15:40.114Z,12.58
2017-10-20T00:16:40.115Z,12.47
2017-10-20T00:17:40.119Z,12.42
2017-10-20T00:18:40.119Z,12.43
2017-10-20T00:19:40.121Z,12.57
2017-10-20T00:20:40.131Z,12.45
2017-10-20T00:21:40.131Z,12.47
2017-10-20T00:22:40.131Z,12.46
2017-10-20T00:23:40.138Z,12.47
2017-10-20T00:24:40.138Z,12.42
2017-10-20T00:25:40.141Z,12.47
2017-10-20T00:26:40.145Z,12.46
2017-10-20T00:27:40.146Z,12.53
2017-10-20T00:28:40.151Z,12.43
2017-10-20T00:29:40.152Z,12.46
2017-10-20T00:30:40.158Z,12.47
2017-10-20T00:31:40.165Z,12.39
2017-10-20T00:32:40.162Z,12.51
2017-10-20T00:33:40.171Z,12.46
2017-10-20T00:34:40.170Z,12.45
2017-10-20T00:35:40.172Z,12.51
2017-10-20T00:36:40.179Z,12.42
2017-10-20T00:37:40.179Z,12.50
2017-10-20T00:38:40.181Z,12.45
2017-10-20T00:39:40.185Z,12.47
2017-10-20T00:40:40.189Z,12.46
2017-10-20T00:41:40.188Z,12.50
2017-10-20T00:42:40.195Z,12.42
2017-10-20T00:43:40.198Z,12.47
2017-10-20T00:44:40.198Z,12.51
2017-10-20T00:45:40.208Z,12.47
2017-10-20T00:46:40.213Z,12.51
2017-10-20T00:47:40.214Z,12.46
2017-10-20T00:48:40.215Z,12.46
2017-10-20T00:49:40.225Z,12.55
2017-10-20T00:50:40.223Z,12.50
2017-10-20T00:51:40.223Z,12.50
2017-10-20T00:52:40.223Z,12.43
2017-10-20T00:53:40.231Z,12.43
2017-10-20T00:54:40.229Z,12.40
2017-10-20T00:55:40.233Z,12.46
2017-10-20T00:56:40.234Z,12.45
2017-10-20T00:57:40.240Z,12.45
2017-10-20T00:58:40.245Z,12.43
2017-10-20T00:59:40.245Z,12.46
2017-10-20T01:00:40.248Z,12.38
2017-10-20T01:01:40.253Z,12.39
2017-10-20T01:02:40.258Z,12.47
2017-10-20T01:03:40.261Z,12.39
2017-10-20T01:04:40.265Z,12.47
2017-10-20T01:05:40.263Z,12.38
2017-10-20T01:06:40.277Z,12.43
2017-10-20T01:07:40.289Z,12.38
2017-10-20T01:08:40.273Z,12.45
2017-10-20T01:09:40.280Z,12.40
2017-10-20T01:10:40.279Z,12.43
2017-10-20T01:11:40.283Z,12.45
2017-10-20T01:12:40.286Z,12.42
2017-10-20T01:13:40.291Z,12.42
2017-10-20T01:14:40.297Z,12.39
2017-10-20T01:15:40.296Z,12.38
2017-10-20T01:16:40.306Z,12.40
2017-10-20T01:17:40.299Z,12.36
2017-10-20T01:18:40.305Z,12.38
2017-10-20T01:19:40.308Z,12.38
2017-10-20T01:20:40.308Z,12.38
2017-10-20T01:21:40.310Z,12.38
2017-10-20T01:22:40.316Z,12.36
2017-10-20T01:23:40.326Z,12.40
2017-10-20T01:24:40.323Z,12.33
2017-10-20T01:25:40.323Z,12.28
2017-10-20T01:26:40.325Z,12.27
2017-10-20T01:27:40.333Z,12.40
2017-10-20T01:28:40.335Z,12.28
2017-10-20T01:29:40.367Z,12.30
2017-10-20T01:30:40.341Z,12.27
2017-10-20T01:31:40.346Z,12.27
2017-10-20T01:32:40.349Z,12.33
2017-10-20T01:33:40.357Z,12.27
2017-10-20T01:34:40.356Z,12.35
2017-10-20T01:35:40.354Z,12.33
2017-10-20T01:36:40.359Z,12.32
2017-10-20T01:37:40.361Z,12.32
2017-10-20T01:38:40.362Z,12.38
2017-10-20T01:39:40.369Z,12.35
2017-10-20T01:40:40.374Z,12.25
2017-10-20T01:41:40.375Z,12.32
2017-10-20T01:42:40.375Z,12.30
2017-10-20T01:43:40.377Z,12.32
2017-10-20T01:44:40.413Z,12.32
2017-10-20T01:45:40.385Z,12.28
2017-10-20T01:46:40.392Z,12.32
2017-10-20T01:47:40.393Z,12.24
2017-10-20T01:48:40.395Z,12.22
2017-10-20T01:49:40.396Z,12.30
2017-10-20T01:50:40.400Z,12.24
2017-10-20T01:51:40.406Z,12.30
2017-10-20T01:52:40.410Z,12.28
2017-10-20T01:53:40.405Z,12.21
2017-10-20T01:54:40.410Z,12.25
2017-10-20T01:55:40.417Z,12.22
2017-10-20T01:56:40.417Z,12.21
2017-10-20T01:57:40.422Z,12.22
2017-10-20T01:58:40.431Z,12.20
2017-10-20T01:59:40.427Z,12.20
2017-10-20T02:00:40.435Z,12.21
2017-10-20T02:01:40.431Z,12.20
2017-10-20T02:02:40.444Z,12.22
2017-10-20T02:03:40.445Z,12.17
2017-10-20T02:04:40.445Z,12.22
2017-10-20T02:05:40.445Z,12.20
2017-10-20T02:06:40.446Z,12.18
2017-10-20T02:07:40.453Z,12.22
2017-10-20T02:08:40.457Z,12.17
2017-10-20T02:09:40.460Z,12.17
2017-10-20T02:10:40.465Z,12.20
2017-10-20T02:11:40.462Z,12.20
2017-10-20T02:12:40.481Z,12.17
2017-10-20T02:13:40.470Z,12.17
2017-10-20T02:14:40.473Z,12.21
2017-10-20T02:15:40.473Z,12.17
2017-10-20T02:16:40.485Z,12.14
2017-10-20T02:17:40.479Z,12.20
2017-10-20T02:18:40.485Z,12.10
2017-10-20T02:19:40.484Z,12.13
2017-10-20T02:20:40.487Z,12.14
2017-10-20T02:21:40.495Z,12.14
2017-10-20T02:22:40.503Z,12.15
2017-10-20T02:23:40.505Z,12.17
2017-10-20T02:24:40.497Z,12.17
2017-10-20T02:25:40.502Z,12.13
2017-10-20T02:26:40.504Z,12.10
2017-10-20T02:27:40.509Z,12.14
2017-10-20T02:28:40.513Z,12.15
2017-10-20T02:29:40.514Z,12.14
2017-10-20T02:30:40.515Z,12.13
2017-10-20T02:31:40.576Z,12.13
2017-10-20T02:32:40.520Z,12.14
2017-10-20T02:33:40.526Z,12.15
2017-10-20T02:34:40.529Z,12.17
2017-10-20T02:35:40.531Z,12.14
2017-10-20T02:36:40.536Z,12.13
2017-10-20T02:37:40.539Z,12.15
2017-10-20T02:38:40.546Z,12.09
2017-10-20T02:39:40.547Z,12.09
2017-10-20T02:40:40.549Z,12.05
2017-10-20T02:41:40.553Z,12.05
2017-10-20T02:42:40.552Z,12.07
2017-10-20T02:43:40.553Z,12.14
2017-10-20T02:44:40.559Z,12.15
2017-10-20T02:45:40.566Z,12.13
2017-10-20T02:46:40.565Z,12.13
2017-10-20T02:47:40.565Z,12.07
2017-10-20T02:48:40.571Z,12.14
2017-10-20T02:49:40.574Z,12.07
2017-10-20T02:50:40.583Z,12.14
2017-10-20T02:51:40.582Z,12.17
2017-10-20T02:52:40.583Z,12.15
2017-10-20T02:53:40.583Z,12.10
2017-10-20T02:54:40.588Z,12.15
2017-10-20T02:55:40.588Z,12.15
2017-10-20T02:56:40.596Z,12.15
2017-10-20T02:57:40.596Z,12.13
2017-10-20T02:58:40.598Z,12.14
2017-10-20T02:59:40.607Z,12.14
2017-10-20T03:00:40.606Z,12.06
2017-10-20T03:01:40.608Z,12.06
2017-10-20T03:02:40.620Z,12.15
2017-10-20T03:03:40.615Z,12.09
2017-10-20T03:04:40.615Z,12.15
2017-10-20T03:05:40.626Z,12.09
2017-10-20T03:06:40.624Z,12.10
2017-10-20T03:07:40.630Z,12.05
2017-10-20T03:08:40.625Z,12.05
2017-10-20T03:09:40.633Z,12.14
2017-10-20T03:10:40.633Z,12.14
2017-10-20T03:11:40.637Z,12.05
2017-10-20T03:12:40.637Z,12.06
2017-10-20T03:13:40.648Z,12.15
2017-10-20T03:14:40.651Z,12.15
2017-10-20T03:15:40.653Z,12.03
2017-10-20T03:16:40.648Z,12.14
2017-10-20T03:17:40.657Z,12.07
2017-10-20T03:18:40.658Z,12.05
2017-10-20T03:19:40.659Z,12.05
2017-10-20T03:20:40.665Z,12.05
2017-10-20T03:21:40.664Z,12.03
2017-10-20T03:22:40.676Z,12.15
2017-10-20T03:23:40.673Z,12.02
2017-10-20T03:24:40.674Z,12.02
2017-10-20T03:25:40.674Z,12.07
2017-10-20T03:26:40.683Z,12.05
2017-10-20T03:27:40.687Z,12.03
2017-10-20T03:28:40.683Z,12.02
2017-10-20T03:29:40.691Z,12.06
2017-10-20T03:30:40.695Z,12.05
2017-10-20T03:31:40.695Z,12.06
2017-10-20T03:32:40.693Z,12.02
2017-10-20T03:33:40.703Z,12.02
2017-10-20T03:34:40.699Z,12.14
2017-10-20T03:35:40.706Z,12.10
2017-10-20T03:36:40.706Z,11.97
2017-10-20T03:37:40.710Z,12.00
2017-10-20T03:38:40.716Z,11.97
2017-10-20T03:39:40.717Z,11.97
2017-10-20T03:40:40.728Z,12.03
2017-10-20T03:41:40.726Z,12.03
2017-10-20T03:42:40.723Z,11.99
2017-10-20T03:43:40.724Z,11.95
2017-10-20T03:44:40.732Z,11.96
2017-10-20T03:45:40.734Z,11.95
2017-10-20T03:46:40.736Z,11.97
2017-10-20T03:47:40.745Z,11.96
2017-10-20T03:48:40.740Z,11.95
2017-10-20T03:49:40.745Z,11.90
2017-10-20T03:50:40.764Z,11.96
2017-10-20T03:51:40.752Z,11.95
2017-10-20T03:52:40.758Z,11.91
2017-10-20T03:53:40.757Z,11.91
2017-10-20T03:54:40.759Z,12.00
2017-10-20T03:55:40.759Z,11.97
2017-10-20T03:56:40.769Z,11.96
2017-10-20T03:57:40.765Z,11.96
2017-10-20T03:58:40.770Z,11.91
2017-10-20T03:59:40.778Z,11.91
2017-10-20T04:00:40.775Z,11.95
2017-10-20T04:01:40.784Z,11.90
2017-10-20T04:02:40.783Z,12.00
2017-10-20T04:03:40.782Z,11.97
2017-10-20T04:04:40.786Z,11.91
2017-10-20T04:05:40.795Z,11.99
2017-10-20T04:06:40.794Z,11.90
2017-10-20T04:07:40.796Z,11.96
2017-10-20T04:08:40.801Z,11.95
2017-10-20T04:09:40.805Z,11.88
2017-10-20T04:10:40.805Z,11.88
2017-10-20T04:11:40.805Z,11.97
2017-10-20T04:12:40.810Z,11.84
2017-10-20T04:13:40.811Z,11.86
2017-10-20T04:14:40.813Z,11.95
2017-10-20T04:15:40.813Z,11.86
2017-10-20T04:16:40.817Z,11.96
2017-10-20T04:17:40.824Z,11.81
2017-10-20T04:18:40.828Z,11.88
2017-10-20T04:19:40.828Z,11.88
2017-10-20T04:20:40.835Z,11.81
2017-10-20T04:21:40.834Z,11.84
2017-10-20T04:22:40.835Z,11.84
2017-10-20T04:23:40.835Z,11.95
2017-10-20T04:24:40.852Z,11.84
2017-10-20T04:25:40.851Z,11.81
2017-10-20T04:26:40.853Z,11.86
2017-10-20T04:27:40.853Z,11.90
2017-10-20T04:28:40.850Z,11.87
2017-10-20T04:29:40.864Z,11.83
2017-10-20T04:30:40.864Z,11.84
2017-10-20T04:31:40.865Z,11.83
2017-10-20T04:32:40.863Z,11.79
2017-10-20T04:33:40.869Z,11.86
2017-10-20T04:34:40.869Z,11.86
2017-10-20T04:35:40.869Z,11.84
2017-10-20T04:36:40.874Z,11.77
2017-10-20T04:37:40.890Z,11.76
2017-10-20T04:38:40.884Z,11.83
2017-10-20T04:39:40.886Z,11.86
2017-10-20T04:40:40.883Z,11.84
2017-10-20T04:41:40.893Z,11.77
2017-10-20T04:42:40.890Z,11.87
2017-10-20T04:43:40.896Z,11.76
2017-10-20T04:44:40.905Z,11.84
2017-10-20T04:45:40.895Z,11.74
2017-10-20T04:46:40.904Z,11.72
2017-10-20T04:47:40.904Z,11.81
2017-10-20T04:48:40.912Z,11.79
2017-10-20T04:49:40.911Z,11.80
2017-10-20T04:50:40.914Z,11.83
2017-10-20T04:51:40.912Z,11.76
2017-10-20T04:52:40.919Z,11.79
2017-10-20T04:53:40.922Z,11.87
2017-10-20T04:54:40.921Z,11.83
2017-10-20T04:55:40.924Z,11.83
2017-10-20T04:56:40.928Z,11.84
2017-10-20T04:57:40.932Z,11.83
2017-10-20T04:58:40.937Z,11.86
2017-10-20T04:59:40.935Z,11.76
2017-10-20T05:00:40.938Z,11.84
2017-10-20T05:01:40.940Z,11.83
2017-10-20T05:02:40.947Z,11.72
2017-10-20T05:03:40.948Z,11.74
2017-10-20T05:04:40.954Z,11.83
2017-10-20T05:05:40.954Z,11.84
2017-10-20T05:06:40.954Z,11.83
2017-10-20T05:07:40.963Z,11.69
2017-10-20T05:08:40.962Z,11.71
2017-10-20T05:09:40.963Z,11.76
2017-10-20T05:10:40.970Z,11.69
2017-10-20T05:11:40.972Z,11.71
2017-10-20T05:12:40.971Z,11.74
2017-10-20T05:13:40.973Z,11.72
2017-10-20T05:14:40.976Z,11.68
2017-10-20T05:15:40.981Z,11.71
2017-10-20T05:16:40.985Z,11.71
2017-10-20T05:17:40.989Z,11.74
2017-10-20T05:18:40.990Z,11.79
2017-10-20T05:19:40.988Z,11.71
2017-10-20T05:20:40.990Z,11.71
2017-10-20T05:21:40.998Z,11.69
2017-10-20T05:22:41.007Z,11.71
2017-10-20T05:23:41.004Z,11.74
2017-10-20T05:24:41.010Z,11.71
2017-10-20T05:25:41.003Z,11.74
2017-10-20T05:26:41.013Z,11.74
2017-10-20T05:27:41.014Z,11.76
2017-10-20T05:28:41.012Z,11.79
2017-10-20T05:29:41.016Z,11.76
2017-10-20T05:30:41.025Z,11.79
2017-10-20T05:31:41.019Z,11.76
2017-10-20T05:32:41.025Z,11.68
2017-10-20T05:33:41.028Z,11.72
2017-10-20T05:34:41.031Z,11.74
2017-10-20T05:35:41.032Z,11.74
2017-10-20T05:36:41.038Z,11.80
2017-10-20T05:37:41.051Z,11.76
2017-10-20T05:40:13.159Z,11.79
2017-10-20T05:41:13.121Z,11.81
2017-10-20T05:42:13.125Z,11.79
2017-10-20T05:43:13.129Z,11.80
2017-10-20T05:44:13.128Z,11.71
2017-10-20T05:45:13.138Z,11.74
2017-10-20T05:46:13.142Z,11.76
2017-10-20T05:47:13.138Z,11.74
2017-10-20T05:48:13.145Z,11.76
2017-10-20T05:49:13.148Z,11.72
2017-10-20T05:50:13.144Z,11.77
2017-10-20T05:51:13.145Z,11.74
2017-10-20T05:52:13.153Z,11.69
2017-10-20T05:53:13.155Z,11.79
2017-10-20T05:54:13.161Z,11.80
2017-10-20T05:55:13.159Z,11.74
2017-10-20T05:56:13.162Z,11.71
2017-10-20T05:57:13.163Z,11.72
2017-10-20T05:58:13.172Z,11.74
2017-10-20T05:59:13.171Z,11.72
2017-10-20T06:00:13.204Z,11.71
2017-10-20T06:01:13.188Z,11.69
2017-10-20T06:02:13.182Z,11.79
2017-10-20T06:03:13.181Z,11.77
2017-10-20T06:04:13.188Z,11.79
2017-10-20T06:05:13.187Z,11.72
2017-10-20T06:06:13.191Z,11.69
2017-10-20T06:07:13.219Z,11.80
2017-10-20T06:08:13.193Z,11.77
2017-10-20T06:09:13.198Z,11.74
2017-10-20T06:10:13.199Z,11.74
2017-10-20T06:11:13.203Z,11.77
2017-10-20T06:12:13.203Z,11.77
2017-10-20T06:13:13.205Z,11.71
2017-10-20T06:14:13.365Z,11.72
2017-10-20T06:15:13.213Z,11.77
2017-10-20T06:16:13.215Z,11.80
2017-10-20T06:17:13.221Z,11.74
2017-10-20T06:18:13.227Z,11.76
2017-10-20T06:19:13.226Z,11.77
2017-10-20T06:20:13.226Z,11.80
2017-10-20T06:21:13.225Z,11.72
2017-10-20T06:22:13.230Z,11.72
2017-10-20T06:23:13.239Z,11.71
2017-10-20T06:24:13.239Z,11.74
2017-10-20T06:25:13.241Z,11.79
2017-10-20T06:26:13.240Z,11.72
2017-10-20T06:27:13.243Z,11.68
2017-10-20T06:28:13.246Z,11.76
2017-10-20T06:29:13.253Z,11.74
2017-10-20T06:30:13.253Z,11.74
2017-10-20T06:31:13.257Z,11.81
2017-10-20T06:32:13.260Z,11.86
2017-10-20T06:33:13.258Z,11.79
2017-10-20T06:34:13.278Z,11.86
2017-10-20T06:35:13.265Z,11.87
2017-10-20T06:36:13.273Z,11.84
2017-10-20T06:37:13.275Z,11.81
2017-10-20T06:38:13.275Z,11.88
2017-10-20T06:39:13.281Z,11.91
2017-10-20T06:40:13.283Z,11.95
2017-10-20T06:41:13.283Z,11.90
2017-10-20T06:42:13.290Z,11.95
2017-10-20T06:43:13.287Z,11.86
2017-10-20T06:44:13.301Z,11.83
2017-10-20T06:45:13.296Z,11.90
2017-10-20T06:46:13.386Z,11.95
2017-10-20T06:47:13.302Z,11.86
2017-10-20T06:48:13.308Z,11.95
2017-10-20T06:49:13.304Z,11.96
2017-10-20T06:50:13.310Z,12.00
2017-10-20T06:51:13.310Z,12.02
2017-10-20T06:52:13.326Z,11.95
2017-10-20T06:53:13.314Z,12.00
2017-10-20T06:54:13.317Z,11.87
2017-10-20T06:55:13.321Z,11.84
2017-10-20T06:56:13.323Z,12.00
2017-10-20T06:57:13.351Z,11.91
2017-10-20T06:58:13.334Z,11.97
2017-10-20T06:59:13.335Z,12.03
2017-10-20T07:00:13.334Z,11.96
2017-10-20T07:01:13.341Z,11.91
2017-10-20T07:02:13.339Z,11.97
2017-10-20T07:03:13.350Z,12.03
2017-10-20T07:04:13.358Z,11.99
2017-10-20T07:05:13.350Z,11.97
2017-10-20T07:06:13.382Z,11.99
2017-10-20T07:07:13.352Z,12.06
2017-10-20T07:08:13.417Z,11.95
2017-10-20T07:09:13.358Z,11.97
2017-10-20T07:10:13.362Z,12.02
2017-10-20T07:11:13.375Z,12.06
2017-10-20T07:12:13.374Z,11.95
2017-10-20T07:13:13.381Z,12.06
2017-10-20T07:14:13.372Z,12.07
2017-10-20T07:15:13.383Z,12.07
2017-10-20T07:16:13.395Z,12.06
2017-10-20T07:17:13.378Z,12.10
2017-10-20T07:18:13.384Z,12.05
2017-10-20T07:19:13.387Z,12.13
2017-10-20T07:20:13.424Z,12.13
2017-10-20T07:21:13.401Z,12.09
2017-10-20T07:22:13.431Z,12.09
2017-10-20T07:23:13.402Z,12.05
2017-10-20T07:24:13.409Z,12.09
2017-10-20T07:25:13.403Z,12.13
2017-10-20T07:26:13.412Z,12.06
2017-10-20T07:27:13.410Z,12.14
2017-10-20T07:28:13.415Z,12.17
2017-10-20T07:29:13.418Z,12.15
2017-10-20T07:31:13.755Z,12.13
2017-10-20T07:32:13.428Z,12.15
2017-10-20T07:34:13.433Z,12.17
2017-10-20T07:35:13.432Z,12.14
2017-10-20T07:36:13.438Z,12.25
2017-10-20T07:37:13.437Z,12.22
2017-10-20T07:38:13.444Z,12.25
2017-10-20T07:39:13.444Z,12.21
2017-10-20T07:40:13.444Z,12.30
2017-10-20T07:41:13.447Z,12.28
2017-10-20T07:42:13.502Z,12.30
2017-10-20T07:43:13.971Z,12.25
2017-10-20T07:44:13.764Z,12.27
2017-10-20T07:45:13.953Z,12.33
2017-10-20T07:46:13.621Z,12.30
2017-10-20T07:47:13.463Z,12.28
2017-10-20T07:48:13.475Z,12.38
2017-10-20T07:49:13.475Z,12.38
2017-10-20T07:50:13.484Z,12.42
2017-10-20T07:51:13.480Z,12.38
2017-10-20T07:52:13.481Z,12.45
2017-10-20T07:53:13.489Z,12.45
2017-10-20T07:54:13.486Z,12.39
2017-10-20T07:55:13.492Z,12.46
2017-10-20T07:56:13.494Z,12.43
2017-10-20T07:57:13.512Z,12.45
2017-10-20T07:58:13.508Z,12.43
2017-10-20T07:59:13.518Z,12.43
2017-10-20T08:00:13.506Z,12.40
2017-10-20T08:01:13.508Z,12.42
2017-10-20T08:02:13.515Z,12.40
2017-10-20T08:03:13.518Z,12.40
2017-10-20T08:04:13.515Z,12.39
2017-10-20T08:05:13.518Z,12.38
2017-10-20T08:06:13.522Z,12.42
2017-10-20T08:07:13.526Z,12.40
2017-10-20T08:08:13.538Z,12.42
2017-10-20T08:09:13.533Z,12.40
2017-10-20T08:10:13.532Z,12.42
2017-10-20T08:11:13.538Z,12.39
2017-10-20T08:12:13.544Z,12.38
2017-10-20T08:13:13.542Z,12.40
2017-10-20T08:14:13.543Z,12.42
2017-10-20T08:15:13.546Z,12.50
2017-10-20T08:16:13.549Z,12.43
2017-10-20T08:17:13.550Z,12.46
2017-10-20T08:18:13.561Z,12.51
2017-10-20T08:19:13.560Z,12.47
2017-10-20T08:20:13.564Z,12.57
2017-10-20T08:21:13.567Z,12.55
2017-10-20T08:22:13.574Z,12.58
2017-10-20T08:23:13.576Z,12.64
2017-10-20T08:24:13.575Z,12.63
2017-10-20T08:25:13.576Z,12.73
2017-10-20T08:26:13.578Z,12.64
2017-10-20T08:27:13.588Z,12.69
2017-10-20T08:28:13.594Z,12.71
2017-10-20T08:29:13.677Z,12.75
2017-10-20T08:30:13.601Z,12.78
2017-10-20T08:31:13.596Z,12.80
2017-10-20T08:32:13.603Z,12.78
2017-10-20T08:33:13.599Z,12.83
2017-10-20T08:34:13.605Z,12.87
2017-10-20T08:35:13.606Z,12.91
2017-10-20T08:36:13.611Z,12.96
2017-10-20T08:37:13.612Z,12.94
2017-10-20T08:38:13.615Z,12.93
2017-10-20T08:39:13.621Z,12.93
2017-10-20T08:40:13.626Z,13.03
2017-10-20T08:41:13.627Z,13.00
2017-10-20T08:42:13.631Z,13.05
2017-10-20T08:43:13.634Z,13.06
2017-10-20T08:44:13.636Z,13.12
2017-10-20T08:45:13.648Z,13.15
2017-10-20T08:46:13.649Z,13.18
2017-10-20T08:47:13.648Z,13.21
2017-10-20T08:48:13.651Z,13.13
2017-10-20T08:49:13.656Z,13.26
2017-10-20T08:50:13.656Z,13.18
2017-10-20T08:51:13.660Z,13.29
2017-10-20T08:52:13.659Z,13.33
2017-10-20T08:53:13.667Z,13.22
2017-10-20T08:54:13.674Z,13.27
2017-10-20T08:55:13.672Z,13.38
2017-10-20T08:56:13.676Z,13.30
2017-10-20T08:57:13.678Z,13.31
2017-10-20T08:58:13.682Z,13.45
2017-10-20T08:59:13.687Z,13.41
2017-10-20T09:00:13.695Z,13.50
2017-10-20T09:01:13.698Z,13.47
2017-10-20T09:02:13.702Z,13.57
2017-10-20T09:03:13.715Z,13.63
2017-10-20T09:04:13.748Z,13.60
2017-10-20T09:05:13.709Z,13.68
2017-10-20T09:06:13.718Z,13.67
2017-10-20T09:07:13.720Z,13.63
2017-10-20T09:08:13.726Z,13.78
2017-10-20T09:09:13.724Z,13.71
2017-10-20T09:10:13.722Z,13.78
2017-10-20T09:11:13.732Z,13.71
2017-10-20T09:13:45.357Z,13.71
2017-10-20T09:14:45.327Z,13.74
2017-10-20T09:15:45.327Z,13.71
2017-10-20T09:17:45.335Z,13.82
2017-10-20T09:18:45.559Z,13.86
2017-10-20T09:19:45.339Z,13.70
2017-10-20T09:20:45.347Z,13.85
2017-10-20T09:21:45.351Z,13.74
2017-10-20T09:22:45.352Z,13.71
2017-10-20T09:23:45.358Z,13.82
2017-10-20T09:24:45.369Z,13.85
2017-10-20T09:25:45.385Z,13.83
2017-10-20T09:26:45.367Z,13.83
2017-10-20T09:27:45.375Z,13.92
2017-10-20T09:28:45.376Z,13.89
2017-10-20T09:29:45.387Z,13.88
2017-10-20T09:30:45.384Z,13.96
2017-10-20T09:31:45.386Z,13.89
2017-10-20T09:32:45.396Z,13.96
2017-10-20T09:33:45.394Z,13.96
2017-10-20T09:34:45.402Z,14.05
2017-10-20T09:35:45.404Z,13.97
2017-10-20T09:36:45.410Z,14.03
2017-10-20T09:37:45.412Z,13.93
2017-10-20T09:38:45.419Z,13.96
2017-10-20T09:39:45.417Z,14.04
2017-10-20T09:40:45.422Z,14.05
2017-10-20T09:41:45.434Z,14.05
2017-10-20T09:42:45.427Z,14.11
2017-10-20T09:43:45.433Z,14.05
2017-10-20T09:44:45.437Z,14.11
2017-10-20T09:45:45.445Z,14.07
2017-10-20T09:46:45.443Z,14.10
2017-10-20T09:47:45.449Z,14.11
2017-10-20T09:48:45.452Z,14.07
2017-10-20T09:49:45.456Z,14.10
2017-10-20T09:50:45.461Z,14.05
2017-10-20T09:51:45.472Z,14.08
2017-10-20T09:52:45.468Z,14.15
2017-10-20T09:53:45.555Z,14.15
2017-10-20T09:54:45.479Z,14.15
2017-10-20T09:55:45.484Z,14.18
2017-10-20T09:56:45.492Z,14.22
2017-10-20T09:57:45.489Z,14.23
2017-10-20T09:58:45.496Z,14.28
2017-10-20T09:59:45.501Z,14.26
2017-10-20T10:00:45.505Z,14.37
2017-10-20T10:01:45.505Z,14.33
2017-10-20T10:02:45.521Z,14.37
2017-10-20T10:03:45.676Z,14.40
2017-10-20T10:04:45.519Z,14.40
2017-10-20T10:05:45.525Z,14.45
2017-10-20T10:06:45.527Z,14.47
2017-10-20T10:07:45.530Z,14.50
2017-10-20T10:08:45.534Z,14.45
2017-10-20T10:09:45.570Z,14.45
2017-10-20T10:10:45.542Z,14.44
2017-10-20T10:11:45.566Z,14.43
2017-10-20T10:12:45.560Z,14.45
2017-10-20T10:13:45.554Z,14.51
2017-10-20T10:14:45.561Z,14.40
2017-10-20T10:15:45.566Z,14.53
2017-10-20T10:16:45.574Z,14.59
2017-10-20T10:17:45.573Z,14.51
2017-10-20T10:18:45.580Z,14.44
2017-10-20T10:19:45.581Z,14.51
2017-10-20T10:20:45.584Z,14.50
2017-10-20T10:21:45.590Z,14.48
2017-10-20T10:22:45.589Z,14.61
2017-10-20T10:23:45.605Z,14.56
2017-10-20T10:24:45.894Z,14.50
2017-10-20T10:25:47.223Z,14.58
2017-10-20T10:26:45.609Z,14.48
2017-10-20T10:27:45.615Z,14.50
2017-10-20T10:28:45.617Z,14.58
2017-10-20T10:29:45.624Z,14.59
2017-10-20T10:30:45.625Z,14.61
2017-10-20T10:31:45.632Z,14.56
2017-10-20T10:32:45.640Z,14.59
2017-10-20T10:33:45.640Z,14.48
2017-10-20T10:34:45.641Z,14.59
2017-10-20T10:35:45.645Z,14.58
2017-10-20T10:36:45.656Z,14.61
2017-10-20T10:37:45.663Z,14.47
2017-10-20T10:38:45.665Z,14.47
2017-10-20T10:39:45.679Z,14.51
2017-10-20T10:40:45.669Z,14.58
2017-10-20T10:41:45.674Z,14.48
2017-10-20T10:42:45.680Z,14.50
2017-10-20T10:43:45.686Z,14.55
2017-10-20T10:44:45.687Z,14.55
2017-10-20T10:45:45.690Z,14.50
2017-10-20T10:46:45.692Z,14.56
2017-10-20T10:47:45.698Z,14.53
2017-10-20T10:48:45.702Z,14.51
2017-10-20T10:49:45.709Z,14.47
2017-10-20T10:50:45.713Z,14.51
2017-10-20T10:51:45.725Z,14.45
2017-10-20T10:52:45.722Z,14.45
2017-10-20T10:53:45.727Z,14.44
2017-10-20T10:54:45.736Z,14.51
2017-10-20T10:55:45.736Z,14.45
2017-10-20T10:56:45.750Z,14.48
2017-10-20T10:57:45.751Z,14.43
2017-10-20T10:58:45.750Z,14.58
2017-10-20T10:59:45.752Z,14.55
2017-10-20T11:00:45.759Z,14.48
2017-10-20T11:01:45.760Z,14.62
2017-10-20T11:02:45.765Z,14.61
2017-10-20T11:03:45.769Z,14.58
2017-10-20T11:04:45.773Z,14.61
2017-10-20T11:05:45.776Z,14.61
2017-10-20T11:06:45.780Z,14.62
2017-10-20T11:07:45.786Z,14.66
2017-10-20T11:08:45.795Z,14.61
2017-10-20T11:09:45.794Z,14.59
2017-10-20T11:10:45.803Z,14.59
2017-10-20T11:11:45.805Z,14.48
2017-10-20T11:12:45.815Z,14.65
2017-10-20T11:13:45.811Z,14.48
2017-10-20T11:14:45.816Z,14.48
2017-10-20T11:15:45.822Z,14.59
2017-10-20T11:16:45.847Z,14.51
2017-10-20T11:17:45.827Z,14.45
2017-10-20T11:18:45.831Z,14.41
2017-10-20T11:19:46.275Z,14.43
2017-10-20T11:20:45.853Z,14.44
2017-10-20T11:21:45.853Z,14.45
2017-10-20T11:22:45.852Z,14.44
2017-10-20T11:23:45.860Z,14.43
2017-10-20T11:24:45.870Z,14.36
2017-10-20T11:25:45.862Z,14.37
2017-10-20T11:26:45.872Z,14.43
2017-10-20T11:27:45.871Z,14.30
2017-10-20T11:28:45.879Z,14.36
2017-10-20T11:29:45.881Z,14.36
2017-10-20T11:30:45.888Z,14.32
2017-10-20T11:31:45.891Z,14.38
2017-10-20T11:32:45.894Z,14.37
2017-10-20T11:33:45.904Z,14.40
2017-10-20T11:34:45.903Z,14.37
2017-10-20T11:35:45.906Z,14.41
2017-10-20T11:36:45.913Z,14.41
2017-10-20T11:37:45.922Z,14.38
2017-10-20T11:38:45.922Z,14.33
2017-10-20T11:39:45.929Z,14.33
2017-10-20T11:40:45.931Z,14.33
2017-10-20T11:41:45.930Z,14.40
2017-10-20T11:42:45.939Z,14.32
2017-10-20T11:43:45.941Z,14.33
2017-10-20T11:44:45.947Z,14.33
2017-10-20T11:45:45.947Z,14.36
2017-10-20T11:46:45.957Z,14.33
2017-10-20T11:47:45.958Z,14.30
2017-10-20T11:48:45.961Z,14.32
2017-10-20T11:49:45.976Z,14.22
2017-10-20T11:50:45.976Z,14.32
2017-10-20T11:51:45.976Z,14.22
2017-10-20T11:52:45.980Z,14.33
2017-10-20T11:53:45.997Z,14.28
2017-10-20T11:54:45.987Z,14.30
2017-10-20T11:55:45.992Z,14.23
2017-10-20T11:56:45.999Z,14.23
2017-10-20T11:57:45.998Z,14.32
2017-10-20T11:58:46.003Z,14.29
2017-10-20T11:59:46.007Z,14.22
2017-10-20T12:00:46.015Z,14.25
2017-10-20T12:01:46.014Z,14.20
2017-10-20T12:02:46.023Z,14.18
2017-10-20T12:03:46.031Z,14.25
2017-10-20T12:04:46.030Z,14.20
2017-10-20T12:05:46.037Z,14.22
2017-10-20T12:06:46.041Z,14.20
2017-10-20T12:07:46.043Z,14.25
2017-10-20T12:08:46.050Z,14.23
2017-10-20T12:09:46.048Z,14.14
2017-10-20T12:10:46.052Z,14.18
2017-10-20T12:11:46.062Z,14.22
2017-10-20T12:12:46.061Z,14.13
2017-10-20T12:13:46.067Z,14.13
2017-10-20T12:14:46.073Z,14.23
2017-10-20T12:15:46.080Z,14.07
2017-10-20T12:16:46.082Z,14.10
2017-10-20T12:17:46.089Z,14.05
2017-10-20T12:18:46.085Z,14.10
2017-10-20T12:19:46.092Z,14.05
2017-10-20T12:20:46.096Z,14.10
2017-10-20T12:21:46.098Z,14.03
2017-10-20T12:22:46.107Z,14.03
2017-10-20T12:23:46.113Z,14.04
2017-10-20T12:24:46.111Z,14.07
2017-10-20T12:25:46.123Z,14.08
2017-10-20T12:26:46.122Z,14.10
2017-10-20T12:27:46.128Z,14.08
2017-10-20T12:28:46.127Z,14.08
2017-10-20T12:29:46.132Z,14.10
2017-10-20T12:30:46.137Z,14.13
2017-10-20T12:31:46.142Z,14.14
2017-10-20T12:32:46.144Z,14.08
2017-10-20T12:33:46.148Z,14.08
2017-10-20T12:34:46.153Z,14.11
2017-10-20T12:35:46.156Z,14.03
2017-10-20T12:36:46.160Z,14.05
2017-10-20T12:37:46.173Z,14.08
2017-10-20T12:38:46.170Z,14.08
2017-10-20T12:39:46.173Z,14.07
2017-10-20T12:40:46.178Z,14.05
2017-10-20T12:41:46.182Z,14.01
2017-10-20T12:42:46.188Z,13.96
2017-10-20T12:43:46.193Z,13.95
2017-10-20T12:44:46.192Z,13.97
2017-10-20T12:45:46.206Z,13.92
2017-10-20T12:46:46.205Z,13.89
2017-10-20T12:47:46.210Z,13.83
2017-10-20T12:48:46.214Z,13.80
2017-10-20T12:49:46.212Z,13.80
2017-10-20T12:50:46.218Z,13.83
2017-10-20T12:51:46.228Z,13.82
2017-10-20T12:52:46.228Z,13.80
2017-10-20T12:53:46.227Z,13.71
2017-10-20T12:54:46.233Z,13.74
2017-10-20T12:55:46.236Z,13.70
2017-10-20T12:56:46.248Z,13.71
2017-10-20T12:57:46.242Z,13.68
2017-10-20T12:58:46.252Z,13.72